Time;durP1;ratioP1;P1;durP2;ratioP2;P2;SDS_P1;SDS_P2;PMS_P1;PMS_P2;Temp;Humidity;BMP_temperature;BMP_pressure;BME280_temperature;BME280_humidity;BME280_pressure;Samples;Min_cycle;Max_cycle;Signal;HPM_P1;HPM_P2
2022/10/15 00:00:45;;;;;;;1.70;1.50;;;15.90;99.90;;;;;;5035248;28;20195;-89
2022/10/15 00:03:10;;;;;;;1.53;1.43;;;15.90;99.90;;;;;;5021043;28;20218;-89
2022/10/15 00:05:37;;;;;;;2.30;1.50;;;15.80;99.90;;;;;;5023286;28;20230;-90
2022/10/15 00:08:03;;;;;;;1.40;1.40;;;15.90;99.90;;;;;;5041281;28;20255;-89
2022/10/15 00:10:29;;;;;;;1.60;1.50;;;15.80;99.90;;;;;;5046286;28;20215;-89
2022/10/15 00:12:55;;;;;;;1.73;1.40;;;15.90;99.90;;;;;;5027972;28;20543;-89
2022/10/15 00:15:21;;;;;;;1.30;1.30;;;15.90;99.90;;;;;;5049881;28;20197;-89
2022/10/15 00:17:46;;;;;;;1.60;1.50;;;15.90;99.90;;;;;;5029624;28;20227;-89
2022/10/15 00:20:12;;;;;;;1.50;1.40;;;16.00;99.90;;;;;;5038297;28;20271;-90
2022/10/15 00:22:38;;;;;;;2.50;1.50;;;15.90;99.90;;;;;;5037569;28;20612;-90
2022/10/15 00:25:05;;;;;;;1.50;1.50;;;16.00;99.90;;;;;;5036817;28;20250;-90
2022/10/15 00:27:30;;;;;;;1.50;1.40;;;15.90;99.90;;;;;;5045934;28;20221;-90
2022/10/15 00:29:58;;;;;;;1.53;1.43;;;15.90;99.90;;;;;;5044418;28;20616;-90
2022/10/15 00:32:25;;;;;;;1.40;1.30;;;15.90;99.90;;;;;;5052126;28;20264;-90
2022/10/15 00:34:50;;;;;;;2.03;1.40;;;15.90;99.90;;;;;;5031409;28;20194;-90
2022/10/15 00:37:16;;;;;;;1.50;1.50;;;15.90;99.90;;;;;;5035147;28;20210;-90
2022/10/15 00:39:42;;;;;;;1.40;1.40;;;15.90;99.90;;;;;;5035229;28;20246;-91
2022/10/15 00:42:10;;;;;;;1.50;1.40;;;16.00;99.90;;;;;;5041258;28;20185;-90
2022/10/15 00:44:36;;;;;;;1.50;1.40;;;16.00;99.90;;;;;;5045887;28;20200;-91
2022/10/15 00:47:23;;;;;;;1.60;1.50;;;16.00;99.90;;;;;;5048548;28;20221;-90
2022/10/15 00:50:06;;;;;;;2.50;1.60;;;15.90;99.90;;;;;;5017784;28;20216;-90
2022/10/15 00:52:37;;;;;;;1.40;1.40;;;15.90;99.90;;;;;;5042827;28;20279;-90
2022/10/15 00:55:08;;;;;;;1.90;1.63;;;15.90;99.90;;;;;;5036963;28;20188;-90
2022/10/15 00:57:35;;;;;;;2.30;1.50;;;15.90;99.90;;;;;;5038488;28;20562;-91
2022/10/15 01:00:08;;;;;;;1.53;1.50;;;16.00;99.90;;;;;;5042629;28;20194;-90
2022/10/15 01:02:34;;;;;;;1.80;1.47;;;16.00;99.90;;;;;;5041441;28;20190;-89
2022/10/15 01:04:59;;;;;;;1.40;1.40;;;15.90;99.90;;;;;;5027460;28;20202;-89
2022/10/15 01:07:25;;;;;;;2.00;1.30;;;15.90;99.90;;;;;;5044627;28;20211;-89
2022/10/15 01:09:54;;;;;;;1.60;1.50;;;16.00;99.90;;;;;;5039221;28;20263;-88
2022/10/15 01:12:27;;;;;;;2.17;1.50;;;15.90;99.90;;;;;;5042431;28;20610;-88
2022/10/15 01:15:04;;;;;;;1.60;1.50;;;15.90;99.90;;;;;;5046384;28;20184;-88
2022/10/15 01:17:48;;;;;;;1.60;1.50;;;15.90;99.90;;;;;;5030136;28;20205;-88
2022/10/15 01:20:51;;;;;;;1.80;1.70;;;15.90;99.90;;;;;;5029014;28;20223;-89
2022/10/15 01:23:45;;;;;;;2.17;1.60;;;16.00;99.90;;;;;;5093649;22;20231;-85
2022/10/15 01:26:41;;;;;;;1.40;1.40;;;16.00;99.90;;;;;;5055229;28;20206;-86
2022/10/15 01:29:22;;;;;;;1.60;1.50;;;15.90;99.90;;;;;;5055973;28;20587;-87
2022/10/15 01:31:59;;;;;;;1.40;1.40;;;15.90;99.90;;;;;;5063042;28;20208;-86
2022/10/15 01:35:00;;;;;;;1.50;1.40;;;16.00;99.90;;;;;;5054123;28;20178;-86
2022/10/15 01:37:32;;;;;;;1.50;1.40;;;16.00;99.90;;;;;;5037816;28;20194;-84
2022/10/15 01:40:05;;;;;;;1.63;1.53;;;16.10;99.90;;;;;;5057183;28;20197;-84
2022/10/15 01:42:43;;;;;;;1.47;1.40;;;16.00;99.90;;;;;;5048344;28;20490;-84
2022/10/15 01:45:17;;;;;;;1.50;1.40;;;16.00;99.90;;;;;;5042375;28;20181;-85
2022/10/15 01:47:52;;;;;;;1.37;1.33;;;16.10;99.90;;;;;;5050376;28;20208;-85
2022/10/15 01:50:21;;;;;;;2.07;1.60;;;16.10;99.90;;;;;;5051761;28;20240;-84
2022/10/15 01:52:50;;;;;;;1.70;1.60;;;16.10;99.90;;;;;;5049247;28;20204;-85
2022/10/15 01:55:18;;;;;;;1.33;1.33;;;16.10;99.90;;;;;;5050096;28;20207;-85
2022/10/15 01:57:45;;;;;;;1.60;1.50;;;16.20;99.90;;;;;;5052229;28;20188;-85
2022/10/15 02:00:11;;;;;;;1.40;1.40;;;16.10;99.90;;;;;;5055842;28;20492;-86
2022/10/15 02:02:37;;;;;;;1.80;1.60;;;16.10;99.90;;;;;;5048866;28;20215;-85
2022/10/15 02:05:06;;;;;;;1.30;1.30;;;16.10;99.90;;;;;;5048891;28;20205;-85
2022/10/15 02:08:01;;;;;;;1.93;1.53;;;16.30;99.90;;;;;;5049862;28;20209;-85
2022/10/15 02:10:42;;;;;;;1.30;1.30;;;16.30;99.90;;;;;;5045080;28;20571;-85
2022/10/15 02:13:32;;;;;;;1.60;1.50;;;16.20;99.90;;;;;;5054648;28;20645;-86
2022/10/15 02:16:24;;;;;;;2.00;1.50;;;16.20;99.90;;;;;;5051738;28;20201;-85
2022/10/15 02:18:54;;;;;;;1.63;1.53;;;16.20;99.90;;;;;;5045977;28;20220;-86
2022/10/15 02:21:44;;;;;;;1.53;1.50;;;16.20;99.90;;;;;;5053139;28;20242;-85
2022/10/15 02:24:31;;;;;;;1.50;1.40;;;16.10;99.90;;;;;;5048219;28;20202;-85
2022/10/15 02:26:59;;;;;;;1.50;1.50;;;16.10;99.90;;;;;;5050224;28;20200;-85
2022/10/15 02:29:30;;;;;;;1.40;1.40;;;16.10;99.90;;;;;;5056755;28;20202;-85
2022/10/15 02:31:58;;;;;;;1.53;1.43;;;16.20;99.90;;;;;;5054939;28;20212;-85
2022/10/15 02:34:28;;;;;;;2.60;1.50;;;16.30;99.90;;;;;;5054882;28;20341;-85
2022/10/15 02:36:57;;;;;;;1.60;1.40;;;16.30;99.90;;;;;;5052598;28;20189;-84
2022/10/15 02:39:24;;;;;;;1.30;1.30;;;16.30;99.90;;;;;;5060832;28;20196;-85
2022/10/15 02:41:53;;;;;;;1.50;1.40;;;16.30;99.90;;;;;;5045909;28;20423;-85
2022/10/15 02:44:19;;;;;;;1.30;1.30;;;16.30;99.90;;;;;;5047461;28;20604;-85
2022/10/15 02:46:45;;;;;;;1.30;1.30;;;16.30;99.90;;;;;;5058689;28;20196;-86
2022/10/15 02:49:11;;;;;;;1.33;1.33;;;16.30;99.90;;;;;;5052524;28;20348;-86
2022/10/15 02:51:37;;;;;;;1.40;1.40;;;16.30;99.90;;;;;;5048140;28;20213;-85
2022/10/15 02:54:04;;;;;;;1.30;1.30;;;16.30;99.90;;;;;;5062423;28;20188;-86
2022/10/15 02:56:30;;;;;;;1.47;1.47;;;16.30;99.90;;;;;;5040105;28;20287;-85
2022/10/15 02:58:56;;;;;;;1.43;1.40;;;16.30;99.90;;;;;;5046969;28;20193;-85
2022/10/15 03:01:22;;;;;;;2.73;1.37;;;16.20;99.90;;;;;;5053590;28;20192;-85
2022/10/15 03:03:47;;;;;;;1.50;1.40;;;16.20;99.90;;;;;;5065534;28;20191;-86
2022/10/15 03:06:14;;;;;;;1.40;1.40;;;16.20;99.90;;;;;;5059159;28;20191;-85
2022/10/15 03:08:41;;;;;;;2.03;1.30;;;16.10;99.90;;;;;;5057592;28;20230;-86
2022/10/15 03:11:07;;;;;;;2.00;1.63;;;16.20;99.90;;;;;;5055593;28;20185;-86
2022/10/15 03:13:36;;;;;;;1.73;1.43;;;16.20;99.90;;;;;;5058657;28;20183;-86
2022/10/15 03:16:05;;;;;;;1.40;1.40;;;16.20;99.90;;;;;;5053801;28;20164;-85
2022/10/15 03:18:32;;;;;;;1.70;1.60;;;16.20;99.90;;;;;;5054476;28;20212;-85
2022/10/15 03:20:58;;;;;;;1.50;1.50;;;16.20;99.90;;;;;;5060818;28;20192;-85
2022/10/15 03:23:24;;;;;;;2.87;1.70;;;16.30;99.90;;;;;;5044053;28;20209;-85
2022/10/15 03:25:51;;;;;;;1.50;1.40;;;16.30;99.90;;;;;;5058746;28;20210;-85
2022/10/15 03:28:17;;;;;;;1.50;1.40;;;16.30;99.90;;;;;;5058482;28;20198;-85
2022/10/15 03:30:43;;;;;;;1.47;1.33;;;16.30;99.90;;;;;;5058064;28;20206;-85
2022/10/15 03:33:09;;;;;;;1.50;1.50;;;16.30;99.90;;;;;;5055743;28;20203;-84
2022/10/15 03:35:34;;;;;;;1.70;1.60;;;16.30;99.90;;;;;;5053656;28;20193;-85
2022/10/15 03:38:00;;;;;;;1.70;1.43;;;16.40;99.90;;;;;;5053301;28;20728;-85
2022/10/15 03:40:26;;;;;;;1.90;1.67;;;16.40;99.90;;;;;;5051726;28;20288;-86
2022/10/15 03:42:52;;;;;;;2.27;1.50;;;16.40;99.90;;;;;;5060524;28;20215;-86
2022/10/15 03:45:19;;;;;;;1.47;1.40;;;16.30;99.90;;;;;;5062319;28;20188;-86
2022/10/15 03:47:45;;;;;;;1.60;1.50;;;16.30;99.90;;;;;;5051507;28;20353;-85
2022/10/15 03:50:11;;;;;;;1.77;1.67;;;16.30;99.90;;;;;;5058279;28;20230;-86
2022/10/15 03:52:37;;;;;;;1.60;1.50;;;16.30;99.90;;;;;;5055063;28;20271;-86
2022/10/15 03:55:04;;;;;;;1.60;1.43;;;16.40;99.90;;;;;;5056631;28;20212;-86
2022/10/15 03:57:30;;;;;;;1.40;1.40;;;16.30;99.90;;;;;;5051828;28;20203;-86
2022/10/15 03:59:55;;;;;;;1.87;1.50;;;16.30;99.90;;;;;;5056730;28;20199;-85
2022/10/15 04:02:22;;;;;;;1.60;1.50;;;16.40;99.90;;;;;;5053677;28;20223;-86
2022/10/15 04:04:50;;;;;;;1.67;1.57;;;16.30;99.90;;;;;;5062983;28;20249;-85
2022/10/15 04:07:16;;;;;;;2.10;1.60;;;16.30;99.90;;;;;;5058881;28;20227;-86
2022/10/15 04:09:41;;;;;;;3.80;1.70;;;16.40;99.90;;;;;;5050658;28;20222;-86
2022/10/15 04:12:07;;;;;;;3.73;1.57;;;16.40;99.90;;;;;;5057985;28;20267;-85
2022/10/15 04:14:33;;;;;;;2.17;1.50;;;16.40;99.90;;;;;;5058625;28;20223;-86
2022/10/15 04:16:58;;;;;;;1.50;1.50;;;16.30;99.90;;;;;;5037763;28;20209;-86
2022/10/15 04:19:24;;;;;;;1.87;1.60;;;16.20;99.90;;;;;;5055711;28;20192;-86
2022/10/15 04:21:49;;;;;;;1.50;1.50;;;16.20;99.90;;;;;;5063461;28;20228;-85
2022/10/15 04:24:15;;;;;;;1.63;1.53;;;16.30;99.90;;;;;;5057191;28;20204;-87
2022/10/15 04:26:41;;;;;;;2.80;1.70;;;16.20;99.90;;;;;;5055084;28;20193;-86
2022/10/15 04:29:06;;;;;;;1.60;1.50;;;16.20;99.90;;;;;;5049381;28;20234;-83
2022/10/15 04:31:32;;;;;;;1.70;1.60;;;16.10;99.90;;;;;;5053660;28;20273;-86
2022/10/15 04:33:58;;;;;;;1.70;1.60;;;16.10;99.90;;;;;;5060343;28;20168;-86
2022/10/15 04:36:24;;;;;;;1.30;1.30;;;16.10;99.90;;;;;;5059540;28;20218;-85
2022/10/15 04:38:49;;;;;;;4.80;1.73;;;16.20;99.90;;;;;;5062637;28;20193;-86
2022/10/15 04:41:15;;;;;;;3.93;1.80;;;16.20;99.90;;;;;;5067313;28;20199;-85
2022/10/15 04:43:41;;;;;;;1.80;1.70;;;16.20;99.90;;;;;;5060645;28;20192;-85
2022/10/15 04:46:08;;;;;;;2.07;1.97;;;16.20;99.90;;;;;;5039520;28;20265;-85
2022/10/15 04:48:35;;;;;;;2.00;1.90;;;16.30;99.90;;;;;;5060473;28;20215;-85
2022/10/15 04:51:12;;;;;;;1.80;1.70;;;16.20;99.90;;;;;;5068132;28;20195;-86
2022/10/15 04:53:38;;;;;;;4.37;1.63;;;16.30;99.90;;;;;;5065790;28;20180;-85
2022/10/15 04:56:07;;;;;;;1.97;1.63;;;16.20;99.90;;;;;;5061642;28;20225;-85
2022/10/15 04:58:34;;;;;;;1.70;1.60;;;16.20;99.90;;;;;;5057886;28;20207;-86
2022/10/15 05:01:05;;;;;;;2.20;1.80;;;16.20;99.90;;;;;;5061405;28;20184;-86
2022/10/15 05:03:32;;;;;;;1.80;1.70;;;16.20;99.90;;;;;;5054565;28;20189;-86
2022/10/15 05:06:03;;;;;;;1.93;1.83;;;16.20;99.90;;;;;;5053810;28;20211;-85
2022/10/15 05:08:30;;;;;;;2.17;1.80;;;16.20;99.90;;;;;;5049602;28;20188;-86
2022/10/15 05:11:06;;;;;;;1.70;1.60;;;16.20;99.90;;;;;;5047818;28;20245;-85
2022/10/15 05:13:32;;;;;;;2.53;1.50;;;16.10;99.90;;;;;;5049688;28;20200;-86
2022/10/15 05:16:09;;;;;;;1.90;1.70;;;16.10;99.90;;;;;;5058435;28;20193;-86
2022/10/15 05:18:35;;;;;;;1.90;1.80;;;16.10;99.90;;;;;;5060377;28;20184;-86
2022/10/15 05:21:01;;;;;;;2.27;1.67;;;16.00;99.90;;;;;;5041438;28;20202;-86
2022/10/15 05:23:26;;;;;;;2.70;1.67;;;16.00;99.90;;;;;;5050694;28;20201;-86
2022/10/15 05:25:52;;;;;;;1.83;1.73;;;16.10;99.90;;;;;;5044782;28;20701;-85
2022/10/15 05:28:18;;;;;;;1.90;1.80;;;16.10;99.90;;;;;;5045028;28;20192;-86
2022/10/15 05:30:44;;;;;;;1.87;1.77;;;16.10;99.90;;;;;;5052154;28;20285;-86
2022/10/15 05:33:10;;;;;;;2.60;1.97;;;16.10;99.90;;;;;;5049296;28;20279;-86
2022/10/15 05:35:37;;;;;;;2.20;1.70;;;16.10;99.90;;;;;;5056143;28;20561;-86
2022/10/15 05:38:03;;;;;;;2.03;1.93;;;16.10;99.90;;;;;;5042438;28;20311;-86
2022/10/15 05:40:29;;;;;;;1.60;1.60;;;16.10;99.90;;;;;;5048469;28;20602;-85
2022/10/15 05:42:55;;;;;;;1.70;1.60;;;16.10;99.90;;;;;;5043236;28;20241;-85
2022/10/15 05:45:21;;;;;;;2.10;1.90;;;16.10;99.90;;;;;;5049001;28;20189;-86
2022/10/15 05:47:55;;;;;;;1.90;1.80;;;16.00;99.90;;;;;;5049634;28;20189;-86
2022/10/15 05:50:23;;;;;;;2.53;1.93;;;16.00;99.90;;;;;;5049508;28;20343;-85
2022/10/15 05:52:49;;;;;;;2.13;1.97;;;16.00;99.90;;;;;;5049802;28;20201;-86
2022/10/15 05:55:15;;;;;;;2.77;2.00;;;16.00;99.90;;;;;;5043442;28;20191;-86
2022/10/15 05:57:40;;;;;;;2.73;2.20;;;16.00;99.90;;;;;;5043500;28;20198;-86
2022/10/15 06:00:07;;;;;;;1.90;1.80;;;16.00;99.90;;;;;;5045265;28;20252;-86
2022/10/15 06:02:32;;;;;;;2.03;1.90;;;16.00;99.90;;;;;;5052004;28;20296;-86
2022/10/15 06:04:58;;;;;;;2.43;1.80;;;16.00;99.90;;;;;;5049193;28;20236;-85
2022/10/15 06:07:24;;;;;;;4.63;4.10;;;15.90;99.90;;;;;;5050038;28;20212;-86
2022/10/15 06:09:50;;;;;;;2.23;2.03;;;15.90;99.90;;;;;;5053724;28;20214;-85
2022/10/15 06:12:16;;;;;;;1.87;1.77;;;16.00;99.90;;;;;;5045228;28;20221;-85
2022/10/15 06:14:41;;;;;;;3.17;1.90;;;16.00;99.90;;;;;;5040252;28;20235;-86
2022/10/15 06:17:07;;;;;;;2.00;1.90;;;16.00;99.90;;;;;;5051829;28;20248;-85
2022/10/15 06:19:33;;;;;;;1.97;1.70;;;16.10;99.90;;;;;;5066941;28;20173;-84
2022/10/15 06:21:58;;;;;;;1.80;1.70;;;16.00;99.90;;;;;;5063750;28;20222;-84
2022/10/15 06:24:24;;;;;;;2.13;1.90;;;16.00;99.90;;;;;;5053692;28;20694;-85
2022/10/15 06:26:50;;;;;;;2.40;1.93;;;16.00;99.90;;;;;;5047718;28;20542;-85
2022/10/15 06:29:15;;;;;;;2.07;1.93;;;15.90;99.90;;;;;;5053717;28;20584;-87
2022/10/15 06:31:41;;;;;;;2.00;1.87;;;16.00;99.90;;;;;;5042835;28;20211;-86
2022/10/15 06:34:07;;;;;;;1.80;1.70;;;16.00;99.90;;;;;;5045075;28;20190;-87
2022/10/15 06:36:32;;;;;;;1.90;1.80;;;16.00;99.90;;;;;;5046300;28;20186;-86
2022/10/15 06:38:58;;;;;;;2.50;1.90;;;15.90;99.90;;;;;;5045552;28;20262;-86
2022/10/15 06:41:23;;;;;;;2.17;1.93;;;15.90;99.90;;;;;;5048635;28;20207;-86
2022/10/15 06:43:49;;;;;;;2.50;1.80;;;15.90;99.90;;;;;;5052095;28;20203;-86
2022/10/15 06:46:15;;;;;;;2.90;1.77;;;16.00;99.90;;;;;;5053510;28;20191;-86
2022/10/15 06:48:41;;;;;;;2.00;1.90;;;16.00;99.90;;;;;;5039808;28;20181;-87
2022/10/15 06:51:06;;;;;;;1.87;1.77;;;16.00;99.90;;;;;;5042984;28;20189;-87
2022/10/15 06:53:32;;;;;;;2.90;1.80;;;16.10;99.90;;;;;;5043273;28;20192;-86
2022/10/15 06:56:02;;;;;;;2.83;1.90;;;16.10;99.90;;;;;;5043684;28;20193;-86
2022/10/15 06:58:29;;;;;;;2.53;2.07;;;16.10;99.90;;;;;;5049874;28;20180;-86
2022/10/15 07:01:02;;;;;;;2.27;2.07;;;16.10;99.90;;;;;;5065044;28;20172;-85
2022/10/15 07:03:28;;;;;;;2.47;1.97;;;16.10;99.90;;;;;;5069288;28;20488;-87
2022/10/15 07:05:54;;;;;;;2.10;1.90;;;16.20;99.90;;;;;;5059569;28;20190;-86
2022/10/15 07:08:20;;;;;;;2.30;2.20;;;16.10;99.90;;;;;;5061236;28;20181;-85
2022/10/15 07:10:45;;;;;;;2.07;1.90;;;16.10;99.90;;;;;;5060358;28;20221;-86
2022/10/15 07:13:11;;;;;;;4.77;2.20;;;16.10;99.90;;;;;;5063978;28;20221;-86
2022/10/15 07:15:36;;;;;;;4.13;2.10;;;16.10;99.90;;;;;;5063713;28;20218;-86
2022/10/15 07:18:02;;;;;;;3.67;2.23;;;16.10;99.90;;;;;;5049350;28;20217;-86
2022/10/15 07:20:29;;;;;;;2.10;2.00;;;16.20;99.90;;;;;;5051644;28;20212;-87
2022/10/15 07:22:59;;;;;;;2.33;2.13;;;16.10;99.90;;;;;;5043462;28;20239;-86
2022/10/15 07:25:26;;;;;;;2.37;2.17;;;16.10;99.90;;;;;;5039179;28;20246;-86
2022/10/15 07:27:54;;;;;;;3.03;2.00;;;16.10;99.90;;;;;;5047756;28;20212;-86
2022/10/15 07:30:21;;;;;;;2.90;2.07;;;16.10;99.90;;;;;;5055321;28;20936;-86
2022/10/15 07:32:47;;;;;;;2.00;1.90;;;16.10;99.90;;;;;;5045114;28;20685;-86
2022/10/15 07:35:13;;;;;;;2.23;2.10;;;16.10;99.90;;;;;;5047310;28;20215;-87
2022/10/15 07:37:39;;;;;;;2.90;2.07;;;16.00;99.90;;;;;;5052754;28;20566;-86
2022/10/15 07:40:06;;;;;;;2.30;2.10;;;16.10;99.90;;;;;;5055669;28;20181;-87
2022/10/15 07:42:31;;;;;;;2.40;2.20;;;16.10;99.90;;;;;;5042667;28;20212;-86
2022/10/15 07:44:58;;;;;;;2.07;1.87;;;16.10;99.90;;;;;;5049056;28;20183;-86
2022/10/15 07:47:23;;;;;;;2.00;1.90;;;16.10;99.90;;;;;;5050323;28;20216;-87
2022/10/15 07:49:49;;;;;;;2.10;2.00;;;16.10;99.90;;;;;;5043450;28;20217;-87
2022/10/15 07:52:15;;;;;;;4.17;2.20;;;16.10;99.90;;;;;;5052803;28;20209;-86
2022/10/15 07:54:40;;;;;;;2.60;2.40;;;16.20;99.90;;;;;;5055456;28;20282;-87
2022/10/15 07:57:06;;;;;;;2.47;2.20;;;16.20;99.90;;;;;;5056244;28;20251;-86
2022/10/15 07:59:33;;;;;;;2.13;2.03;;;16.30;99.90;;;;;;5049581;28;20204;-86
2022/10/15 08:01:58;;;;;;;2.33;2.13;;;16.30;99.90;;;;;;5045570;28;20243;-86
2022/10/15 08:04:24;;;;;;;1.83;1.73;;;16.30;99.90;;;;;;5045437;28;20194;-86
2022/10/15 08:06:50;;;;;;;2.00;1.90;;;16.30;99.90;;;;;;5046567;28;20262;-86
2022/10/15 08:09:16;;;;;;;1.83;1.80;;;16.30;99.90;;;;;;5054949;28;20228;-86
2022/10/15 08:11:42;;;;;;;1.90;1.80;;;16.30;99.90;;;;;;5052782;28;20208;-86
2022/10/15 08:14:07;;;;;;;2.20;2.00;;;16.30;99.90;;;;;;5058178;28;20185;-87
2022/10/15 08:16:34;;;;;;;1.97;1.87;;;16.40;99.90;;;;;;5051647;28;20197;-87
2022/10/15 08:18:59;;;;;;;2.33;2.10;;;16.40;99.90;;;;;;5049234;28;20192;-86
2022/10/15 08:21:25;;;;;;;2.30;1.90;;;16.40;99.90;;;;;;5057098;28;20253;-86
2022/10/15 08:23:51;;;;;;;1.93;1.83;;;16.30;99.90;;;;;;5054173;28;20208;-86
2022/10/15 08:26:17;;;;;;;2.00;1.90;;;16.30;99.90;;;;;;5057454;28;20202;-87
2022/10/15 08:28:43;;;;;;;2.40;1.90;;;16.20;99.90;;;;;;5056808;28;20188;-86
2022/10/15 08:31:09;;;;;;;1.77;1.70;;;16.30;99.90;;;;;;5055241;28;20215;-87
2022/10/15 08:33:36;;;;;;;2.00;1.90;;;16.30;99.90;;;;;;5054904;28;20234;-87
2022/10/15 08:36:04;;;;;;;1.90;1.80;;;16.20;99.90;;;;;;5051806;28;20311;-87
2022/10/15 08:38:30;;;;;;;1.83;1.73;;;16.30;99.90;;;;;;5042675;28;20189;-87
2022/10/15 08:40:58;;;;;;;1.77;1.67;;;16.20;99.90;;;;;;5050772;28;20195;-87
2022/10/15 08:43:32;;;;;;;4.20;1.87;;;16.40;99.90;;;;;;5051094;28;20246;-87
2022/10/15 08:46:02;;;;;;;1.93;1.70;;;16.40;99.90;;;;;;5040660;28;20203;-86
2022/10/15 08:48:32;;;;;;;3.47;1.90;;;16.30;99.90;;;;;;5054668;28;20187;-87
2022/10/15 08:51:17;;;;;;;3.27;1.70;;;16.20;99.90;;;;;;5054731;28;20183;-87
2022/10/15 08:53:51;;;;;;;2.03;1.80;;;16.20;99.90;;;;;;5041401;28;20211;-87
2022/10/15 08:56:29;;;;;;;2.53;1.77;;;16.30;99.90;;;;;;5041292;28;20196;-87
2022/10/15 08:59:03;;;;;;;1.90;1.80;;;16.30;99.90;;;;;;5045527;28;20184;-87
2022/10/15 09:01:57;;;;;;;2.13;1.80;;;16.50;99.90;;;;;;5049007;28;20203;-87
2022/10/15 09:04:28;;;;;;;1.93;1.70;;;16.50;99.90;;;;;;5048762;28;20243;-87
2022/10/15 09:07:13;;;;;;;2.63;1.60;;;16.50;99.90;;;;;;5052098;28;20171;-87
2022/10/15 09:09:39;;;;;;;1.80;1.70;;;16.40;99.90;;;;;;5049767;28;20842;-86
2022/10/15 09:12:26;;;;;;;2.40;1.67;;;16.50;99.90;;;;;;5044414;28;20205;-86
2022/10/15 09:14:57;;;;;;;2.20;2.00;;;16.60;99.90;;;;;;5044650;28;20181;-86
2022/10/15 09:17:27;;;;;;;2.67;1.80;;;16.80;99.90;;;;;;5050399;28;20192;-86
2022/10/15 09:19:55;;;;;;;2.63;1.90;;;16.80;99.90;;;;;;5053163;28;20211;-86
2022/10/15 09:22:28;;;;;;;2.60;1.80;;;16.80;99.90;;;;;;5052739;28;20305;-86
2022/10/15 09:24:55;;;;;;;1.97;1.87;;;16.90;99.90;;;;;;5052770;28;20205;-86
2022/10/15 09:27:32;;;;;;;1.90;1.70;;;17.00;99.90;;;;;;5050783;28;20186;-86
2022/10/15 09:30:27;;;;;;;2.90;1.80;;;17.10;99.90;;;;;;5043043;28;20216;-85
2022/10/15 09:33:14;;;;;;;2.10;1.90;;;17.20;99.90;;;;;;5053429;28;20203;-86
2022/10/15 09:35:50;;;;;;;1.70;1.60;;;17.10;99.90;;;;;;5063566;28;20168;-86
2022/10/15 09:38:22;;;;;;;2.00;1.77;;;17.20;99.90;;;;;;5059872;28;20197;-85
2022/10/15 09:41:14;;;;;;;2.50;2.07;;;17.20;99.90;;;;;;5045851;28;20195;-86
2022/10/15 09:43:43;;;;;;;2.30;2.10;;;17.20;99.90;;;;;;5050567;28;20181;-86
2022/10/15 09:46:10;;;;;;;2.73;2.03;;;17.30;99.90;;;;;;5046283;28;20571;-86
2022/10/15 09:48:43;;;;;;;4.10;1.90;;;17.50;99.90;;;;;;5050857;28;20189;-86
2022/10/15 09:52:03;;;;;;;3.07;1.93;;;17.50;99.90;;;;;;5051836;28;20252;-86
2022/10/15 09:54:51;;;;;;;2.07;1.90;;;17.60;99.90;;;;;;4973872;28;20203;-87
2022/10/15 09:57:20;;;;;;;2.07;1.97;;;17.50;99.90;;;;;;4981532;28;20215;-86
2022/10/15 10:00:00;;;;;;;2.20;2.00;;;17.50;99.90;;;;;;5036310;28;20218;-87
2022/10/15 10:02:27;;;;;;;1.87;1.77;;;17.50;99.90;;;;;;5045189;28;20217;-86
2022/10/15 10:04:53;;;;;;;5.37;2.23;;;17.50;99.90;;;;;;5042709;28;20203;-86
2022/10/15 10:07:36;;;;;;;2.13;1.93;;;17.50;99.90;;;;;;5058081;28;20196;-86
2022/10/15 10:10:26;;;;;;;2.10;2.00;;;17.40;99.90;;;;;;5048722;28;20250;-87
2022/10/15 10:12:54;;;;;;;2.33;1.90;;;17.30;99.90;;;;;;5034666;28;20217;-87
2022/10/15 10:15:35;;;;;;;2.30;2.03;;;17.30;99.90;;;;;;5048212;28;20273;-85
2022/10/15 10:18:04;;;;;;;2.67;2.30;;;17.30;99.90;;;;;;5054917;28;20187;-86
2022/10/15 10:20:35;;;;;;;2.10;2.00;;;17.30;99.90;;;;;;5044820;28;20226;-86
2022/10/15 10:23:19;;;;;;;2.47;2.28;;;17.50;99.90;;;;;;5040665;28;20320;-87
2022/10/15 10:25:45;;;;;;;5.77;2.40;;;17.50;99.90;;;;;;5044118;28;20622;-87
2022/10/15 10:28:10;;;;;;;2.67;2.00;;;17.50;99.90;;;;;;5045772;28;20223;-87
2022/10/15 10:30:38;;;;;;;4.50;2.50;;;17.50;99.90;;;;;;5042367;28;20213;-87
2022/10/15 10:33:04;;;;;;;3.08;2.28;;;17.60;99.90;;;;;;5035984;28;20231;-87
2022/10/15 10:35:45;;;;;;;2.40;2.20;;;17.70;99.90;;;;;;5050860;28;20890;-87
2022/10/15 10:38:22;;;;;;;5.47;2.20;;;17.80;99.90;;;;;;5041716;28;20246;-87
2022/10/15 10:40:54;;;;;;;2.33;2.20;;;17.80;99.90;;;;;;5039036;28;20189;-87
2022/10/15 10:43:25;;;;;;;2.40;2.20;;;17.90;99.90;;;;;;5040903;28;20306;-87
2022/10/15 10:46:00;;;;;;;4.38;2.25;;;18.00;99.90;;;;;;5045507;28;20202;-87
2022/10/15 10:48:44;;;;;;;3.33;2.25;;;18.10;99.90;;;;;;5047803;28;20646;-87
2022/10/15 10:51:15;;;;;;;3.28;2.33;;;18.00;99.90;;;;;;5044368;28;20194;-87
2022/10/15 10:53:59;;;;;;;3.83;2.38;;;18.10;99.90;;;;;;5042110;28;20190;-87
2022/10/15 10:56:32;;;;;;;3.00;2.70;;;18.00;99.90;;;;;;5050917;28;20652;-87
2022/10/15 10:59:15;;;;;;;3.53;2.50;;;18.00;99.90;;;;;;5049366;28;20174;-87
2022/10/15 11:01:41;;;;;;;2.75;2.20;;;18.00;99.90;;;;;;5042513;28;20273;-87
2022/10/15 11:04:29;;;;;;;5.35;2.60;;;18.00;99.90;;;;;;5043057;28;20195;-88
2022/10/15 11:07:03;;;;;;;3.60;2.40;;;17.90;99.90;;;;;;5031446;28;20201;-87
2022/10/15 11:09:44;;;;;;;2.60;2.40;;;17.90;99.90;;;;;;5051553;28;20200;-87
2022/10/15 11:12:55;;;;;;;4.53;1.98;;;17.90;99.90;;;;;;5046212;28;20869;-87
2022/10/15 11:15:26;;;;;;;2.30;2.13;;;17.80;99.90;;;;;;4982690;28;20204;-87
2022/10/15 11:18:26;;;;;;;2.78;2.42;;;17.80;99.90;;;;;;4984748;28;20216;-88
2022/10/15 11:21:10;;;;;;;2.88;2.47;;;17.70;99.90;;;;;;5033099;28;20289;-88
2022/10/15 11:24:01;;;;;;;3.08;2.30;;;17.70;99.90;;;;;;5041891;28;20195;-87
2022/10/15 11:26:59;;;;;;;3.13;2.10;;;17.70;99.90;;;;;;5053942;28;20269;-88
2022/10/15 11:29:43;;;;;;;4.18;2.13;;;17.70;99.90;;;;;;5044276;28;20204;-87
2022/10/15 11:32:23;;;;;;;2.47;2.10;;;17.80;99.90;;;;;;5052412;28;20206;-87
2022/10/15 11:35:04;;;;;;;2.35;2.10;;;17.90;99.90;;;;;;5052267;28;20183;-87
2022/10/15 11:37:59;;;;;;;4.97;2.47;;;17.90;99.90;;;;;;5045169;28;20207;-87
2022/10/15 11:40:52;;;;;;;2.20;2.00;;;17.90;99.90;;;;;;5037969;28;20199;-88
2022/10/15 11:43:32;;;;;;;2.58;2.13;;;17.90;99.90;;;;;;5049288;28;20230;-87
2022/10/15 11:46:29;;;;;;;2.38;2.10;;;17.90;99.90;;;;;;5044030;28;20247;-87
2022/10/15 11:49:00;;;;;;;2.83;2.33;;;17.90;99.90;;;;;;5041224;28;20247;-87
2022/10/15 11:51:51;;;;;;;2.40;2.20;;;18.00;99.90;;;;;;5047775;28;20282;-87
2022/10/15 11:54:30;;;;;;;2.10;2.00;;;17.90;99.90;;;;;;5045442;28;20222;-87
2022/10/15 11:56:58;;;;;;;2.72;2.15;;;17.80;99.90;;;;;;5050922;28;20187;-87
2022/10/15 11:59:48;;;;;;;3.70;2.53;;;17.80;99.90;;;;;;5050918;28;20245;-88
2022/10/15 12:02:16;;;;;;;5.05;2.35;;;17.90;99.90;;;;;;5043482;28;20610;-88
2022/10/15 12:05:16;;;;;;;5.43;2.30;;;17.90;99.90;;;;;;5043727;28;20183;-87
2022/10/15 12:07:44;;;;;;;2.13;2.03;;;17.90;99.90;;;;;;5000085;28;20213;-88
2022/10/15 12:10:12;;;;;;;2.40;2.20;;;17.90;99.90;;;;;;5046707;28;20226;-87
2022/10/15 12:13:04;;;;;;;3.33;2.40;;;17.80;99.90;;;;;;5049759;28;20205;-88
2022/10/15 12:16:01;;;;;;;3.03;1.90;;;17.70;99.90;;;;;;5049886;28;20215;-88
2022/10/15 12:18:38;;;;;;;2.20;2.00;;;17.60;99.90;;;;;;5055710;28;20192;-88
2022/10/15 12:21:29;;;;;;;1.90;1.80;;;17.50;99.90;;;;;;5048309;28;20204;-88
2022/10/15 12:23:54;;;;;;;2.57;2.30;;;17.30;99.90;;;;;;5056067;28;20201;-88
2022/10/15 12:26:23;;;;;;;2.10;2.00;;;17.30;99.90;;;;;;5044461;28;20271;-88
2022/10/15 12:28:54;;;;;;;2.00;1.90;;;17.20;99.90;;;;;;5050768;28;20184;-88
2022/10/15 12:31:23;;;;;;;2.00;1.90;;;17.10;99.90;;;;;;5049210;28;20228;-88
2022/10/15 12:33:56;;;;;;;3.17;2.37;;;17.10;99.90;;;;;;5042901;28;20742;-88
2022/10/15 12:36:28;;;;;;;4.67;2.03;;;17.10;99.90;;;;;;5050167;28;20178;-88
2022/10/15 12:39:03;;;;;;;2.20;2.00;;;17.20;99.90;;;;;;5040761;28;20178;-87
2022/10/15 12:41:42;;;;;;;2.50;2.30;;;17.20;99.90;;;;;;5045813;28;20210;-88
2022/10/15 12:44:19;;;;;;;2.63;2.10;;;17.30;99.90;;;;;;5055037;28;20172;-88
2022/10/15 12:46:45;;;;;;;2.50;2.30;;;17.20;99.90;;;;;;5067908;28;20174;-88
2022/10/15 12:49:27;;;;;;;2.77;2.23;;;17.20;99.90;;;;;;5048989;28;20275;-88
2022/10/15 12:51:53;;;;;;;2.77;2.40;;;17.20;99.90;;;;;;5051699;28;20197;-88
2022/10/15 12:54:45;;;;;;;2.13;2.00;;;17.20;99.90;;;;;;5061368;28;20186;-88
2022/10/15 12:57:29;;;;;;;2.77;2.10;;;17.10;99.90;;;;;;5056257;28;20179;-88
2022/10/15 13:00:14;;;;;;;2.57;2.37;;;17.00;99.90;;;;;;5044329;28;20689;-88
2022/10/15 13:02:44;;;;;;;2.50;2.10;;;17.00;99.90;;;;;;5038790;28;20210;-88
2022/10/15 13:05:31;;;;;;;3.30;2.70;;;16.90;99.90;;;;;;5047351;28;20184;-88
2022/10/15 13:08:00;;;;;;;3.80;2.57;;;17.00;99.90;;;;;;5050037;28;20184;-88
2022/10/15 13:10:34;;;;;;;2.97;2.33;;;17.10;99.90;;;;;;5054648;28;20207;-88